Terminal Aerodrome Forecast
Issued by NWS

Home | Current Version | Previous Version | Text Only | Print | Product List | Glossary On
Versions: 1 2 3 4 5 6 7 8 9 10 11 12 13 14 15 16 17
000
FTAK31 PANC 252322
TAFADU
TAF
PADU 252322Z 2600/2624 09011G25KT P6SM -SHSN BKN018 OVC025
      TEMPO 2600/2604 SCT015 OVC025
     FM260400 10010G20KT P6SM VCSH SCT015 BKN025
     FM261500 10014G27KT P6SM BKN015 OVC025=

USA.gov is the U.S. government's official web portal to all federal, state and local government web resources and services.